Match Point — CRA4590 — position and weather

sailwx.info

Track history (hours):
 
Tides and Currents Weather Stations Pressure Air Temp Water Temp Dewpoint Dewpoint Depression Visibility Wind Speed Wind Dir Waves Ship Positions

Match Point

Last reported at 2017-Jun-13 18:18 UTC. Time now 2017-Jun-28 07:15 UTC.
Position N 38°41' W 009°19'.
Warning: this ship's position is 14 days out of date.

Length 15 m.

Type: Sailing vessel. MMSI: 263913640.

Date/timePositionNaut miles runAvg speedWind from/ knotsBaromVisibWave heightAir tempDewpointWater temp
2017-Jun-13 18:18N 38°41' W 009°19'1 1.9
2017-Jun-13 18:00N 38°40' W 009°20'2 4.1
2017-Jun-13 17:26N 38°41' W 009°23'1 2.4
2017-Jun-13 16:59N 38°42' W 009°23'1 0.6
2017-Jun-13 15:10N 38°42' W 009°25'0 0.0
2017-Jun-13 14:55N 38°42' W 009°25'0 0.0
2017-Jun-13 13:58N 38°42' W 009°25'0 0.1
2017-Jun-13 13:18N 38°42' W 009°25'1 4.6
2017-Jun-13 13:00N 38°41' W 009°24'2 4.7
2017-Jun-13 12:29N 38°39' W 009°21'2 3.7
2017-Jun-13 11:58N 38°40' W 009°19'  
2017-Jun-10 18:02N 38°41' W 009°19'0 2.2
2017-Jun-10 17:58N 38°40' W 009°19'3 5.2
2017-Jun-10 17:21N 38°41' W 009°23'2 3.5
2017-Jun-10 16:54N 38°42' W 009°25'0 0.0
2017-Jun-10 16:21N 38°42' W 009°25'0 0.0
2017-Jun-10 15:51N 38°42' W 009°25'0 0.0
2017-Jun-10 15:24N 38°42' W 009°25'0 0.0
2017-Jun-10 13:48N 38°42' W 009°25'0 1.2
2017-Jun-10 13:30N 38°42' W 009°25'2 3.6
2017-Jun-10 13:00N 38°40' W 009°23'2 4.6
2017-Jun-10 12:30N 38°40' W 009°20'1 1.8
2017-Jun-10 11:49N 38°41' W 009°19'  
Track history (hours):
 
Tides and Currents Weather Stations Pressure Air Temp Water Temp Dewpoint Dewpoint Depression Visibility Wind Speed Wind Dir Waves Ship Positions

Match Point

Last reported at 2017-Jun-13 18:18 UTC. Time now 2017-Jun-28 07:15 UTC.
Position N 38°41' W 009°19'.
Warning: this ship's position is 14 days out of date.

Length 15 m.

Type: Sailing vessel. MMSI: 263913640.

Date/timePositionNaut miles runAvg speedWind from/ knotsBaromVisibWave heightAir tempDewpointWater temp
2017-Jun-13 18:18N 38°41' W 009°19'1 1.9
2017-Jun-13 18:00N 38°40' W 009°20'2 4.1
2017-Jun-13 17:26N 38°41' W 009°23'1 2.4
2017-Jun-13 16:59N 38°42' W 009°23'1 0.6
2017-Jun-13 15:10N 38°42' W 009°25'0 0.0
2017-Jun-13 14:55N 38°42' W 009°25'0 0.0
2017-Jun-13 13:58N 38°42' W 009°25'0 0.1
2017-Jun-13 13:18N 38°42' W 009°25'1 4.6
2017-Jun-13 13:00N 38°41' W 009°24'2 4.7
2017-Jun-13 12:29N 38°39' W 009°21'2 3.7
2017-Jun-13 11:58N 38°40' W 009°19'  
2017-Jun-10 18:02N 38°41' W 009°19'0 2.2
2017-Jun-10 17:58N 38°40' W 009°19'3 5.2
2017-Jun-10 17:21N 38°41' W 009°23'2 3.5
2017-Jun-10 16:54N 38°42' W 009°25'0 0.0
2017-Jun-10 16:21N 38°42' W 009°25'0 0.0
2017-Jun-10 15:51N 38°42' W 009°25'0 0.0
2017-Jun-10 15:24N 38°42' W 009°25'0 0.0
2017-Jun-10 13:48N 38°42' W 009°25'0 1.2
2017-Jun-10 13:30N 38°42' W 009°25'2 3.6
2017-Jun-10 13:00N 38°40' W 009°23'2 4.6
2017-Jun-10 12:30N 38°40' W 009°20'1 1.8
2017-Jun-10 11:49N 38°41' W 009°19'  

Dump ship's entire track history